Time;durP1;ratioP1;P1;durP2;ratioP2;P2;SDS_P1;SDS_P2;PMS_P1;PMS_P2;Temp;Humidity;BMP_temperature;BMP_pressure;BME280_temperature;BME280_humidity;BME280_pressure;Samples;Min_cycle;Max_cycle;Signal;HPM_P1;HPM_P2
2021/03/31 01:04:59;;;;;;;48.15;27.67;;;;;;;6.10;66.53;95588.81;1817901;78;21175;-56
2021/03/31 01:07:27;;;;;;;41.95;25.77;;;;;;;6.16;66.52;95583.91;1766669;79;21120;-56
2021/03/31 01:09:55;;;;;;;46.15;24.12;;;;;;;6.27;66.30;95579.75;1765301;80;21560;-56
2021/03/31 01:13:02;;;;;;;99.87;42.80;;;;;;;6.27;66.21;95581.11;1756716;80;21257;-57
2021/03/31 01:15:44;;;;;;;96.17;42.48;;;;;;;6.19;66.41;95574.14;1757541;80;21838;-55
2021/03/31 01:18:33;;;;;;;101.95;44.65;;;;;;;6.09;66.61;95578.48;1744382;80;21089;-56
2021/03/31 01:21:40;;;;;;;69.15;35.20;;;;;;;6.18;66.97;95573.35;1776509;80;21112;-54
2021/03/31 01:24:39;;;;;;;55.95;30.48;;;;;;;6.39;66.48;95564.27;1777614;80;21144;-56
2021/03/31 01:27:16;;;;;;;59.65;31.37;;;;;;;6.46;65.98;95564.20;1759661;80;22010;-55
2021/03/31 01:29:51;;;;;;;61.15;35.33;;;;;;;6.42;66.23;95566.19;1780089;80;21535;-56
2021/03/31 01:32:55;;;;;;;67.32;39.20;;;;;;;6.49;66.03;95568.30;1764774;79;21548;-57
2021/03/31 01:35:22;;;;;;;;;;;;;;;6.51;65.95;95570.03;1762123;80;21065;-56
2021/03/31 01:37:52;;;;;;;64.60;38.60;;;;;;;6.53;66.06;95566.31;1777937;80;20217;-55
2021/03/31 01:40:21;;;;;;;79.62;46.23;;;;;;;6.54;66.04;95563.77;1769832;80;21229;-57
2021/03/31 01:43:01;;;;;;;82.80;46.65;;;;;;;6.53;66.25;95558.72;1778350;80;21112;-56
2021/03/31 01:45:31;;;;;;;125.20;53.65;;;;;;;6.58;66.23;95563.75;1762447;80;21541;-60
2021/03/31 01:48:04;;;;;;;97.65;53.52;;;;;;;6.59;65.79;95557.09;1762218;80;21566;-55
2021/03/31 01:50:33;;;;;;;89.67;50.28;;;;;;;6.41;66.13;95553.71;1768496;80;21062;-56
2021/03/31 01:53:02;;;;;;;100.15;50.92;;;;;;;6.33;66.56;95556.31;1774527;80;22260;-56
2021/03/31 01:55:30;;;;;;;103.42;52.80;;;;;;;6.38;66.79;95558.61;1758145;80;21545;-56
2021/03/31 01:57:58;;;;;;;95.67;51.08;;;;;;;6.50;66.77;95558.91;1772701;80;21156;-55
2021/03/31 02:00:26;;;;;;;83.95;46.55;;;;;;;6.62;66.46;95554.34;1772320;80;22000;-56
2021/03/31 02:02:55;;;;;;;83.52;44.13;;;;;;;6.67;66.00;95557.25;1772297;80;21053;-56
2021/03/31 02:05:23;;;;;;;96.60;52.17;;;;;;;6.61;65.93;95556.10;1762744;79;21631;-55
2021/03/31 02:07:51;;;;;;;84.58;43.45;;;;;;;6.44;66.02;95551.53;1773452;79;21156;-56
2021/03/31 02:10:22;;;;;;;62.40;35.90;;;;;;;6.33;66.39;95546.75;1783279;79;21108;-57
2021/03/31 02:12:52;;;;;;;63.05;34.38;;;;;;;6.17;66.59;95539.63;1792319;79;21533;-56
2021/03/31 02:15:26;;;;;;;52.85;30.27;;;;;;;6.09;66.99;95547.66;1765494;80;21147;-56
2021/03/31 02:17:57;;;;;;;47.00;27.48;;;;;;;6.15;67.08;95557.00;1774892;80;21198;-56
2021/03/31 02:20:25;;;;;;;48.70;28.67;;;;;;;6.14;67.15;95558.18;1780722;79;21191;-55
2021/03/31 02:22:53;;;;;;;46.88;28.17;;;;;;;6.12;67.48;95550.98;1793948;79;21072;-56
2021/03/31 02:25:21;;;;;;;62.33;35.08;;;;;;;6.17;67.59;95551.31;1780194;79;21154;-56
2021/03/31 02:27:50;;;;;;;67.87;39.33;;;;;;;6.20;67.65;95544.28;1768798;79;21184;-57
2021/03/31 02:30:21;;;;;;;69.90;38.73;;;;;;;6.28;67.62;95549.30;1766390;80;21985;-57
2021/03/31 02:32:51;;;;;;;67.70;38.37;;;;;;;6.32;67.63;95546.56;1762440;79;21147;-56
2021/03/31 02:35:22;;;;;;;102.38;53.38;;;;;;;6.41;67.39;95535.37;1753787;80;21129;-56
2021/03/31 02:37:57;;;;;;;112.22;55.43;;;;;;;6.48;67.03;95533.18;1751911;80;21587;-57
2021/03/31 02:40:26;;;;;;;110.63;56.30;;;;;;;6.43;66.78;95526.18;1751104;80;21187;-58
2021/03/31 02:42:54;;;;;;;135.55;71.12;;;;;;;6.44;67.14;95526.94;1759834;80;21164;-56
2021/03/31 02:45:24;;;;;;;102.30;53.58;;;;;;;6.52;66.77;95527.09;1765044;80;21143;-55
2021/03/31 02:47:52;;;;;;;80.10;44.65;;;;;;;6.51;66.77;95526.30;1772862;80;21144;-56
2021/03/31 02:50:24;;;;;;;66.50;36.73;;;;;;;6.43;66.69;95524.02;1765455;80;21135;-57
2021/03/31 02:52:52;;;;;;;56.53;35.20;;;;;;;6.37;67.06;95521.53;1775197;80;21108;-57
2021/03/31 02:55:23;;;;;;;63.65;34.78;;;;;;;6.28;67.13;95517.09;1769823;80;21108;-56
2021/03/31 02:57:53;;;;;;;55.83;33.28;;;;;;;6.16;67.42;95518.95;1759004;80;21119;-56
2021/03/31 03:00:23;;;;;;;56.33;32.63;;;;;;;6.18;67.87;95520.69;1751756;80;21151;-57
2021/03/31 03:02:52;;;;;;;51.68;29.63;;;;;;;6.26;67.93;95517.52;1766748;80;21136;-56
2021/03/31 03:05:21;;;;;;;57.85;31.65;;;;;;;6.36;67.72;95526.81;1754237;81;21116;-56
2021/03/31 03:07:49;;;;;;;68.80;36.60;;;;;;;6.43;67.37;95518.55;1735051;81;22638;-55
2021/03/31 03:10:17;;;;;;;69.65;38.48;;;;;;;6.50;67.51;95529.45;1755694;80;21071;-56
2021/03/31 03:12:51;;;;;;;69.80;39.63;;;;;;;6.67;67.16;95529.30;1679858;80;21070;-56
2021/03/31 03:15:20;;;;;;;73.47;41.58;;;;;;;6.78;66.86;95530.58;1754007;80;21559;-55
2021/03/31 03:17:49;;;;;;;77.60;42.53;;;;;;;6.81;66.58;95526.46;1782117;80;21140;-55
2021/03/31 03:20:19;;;;;;;89.37;46.42;;;;;;;6.83;66.45;95521.94;1754960;80;21202;-55
2021/03/31 03:22:50;;;;;;;81.95;45.35;;;;;;;6.81;66.39;95523.73;1755919;80;21215;-55
2021/03/31 03:25:22;;;;;;;71.92;40.28;;;;;;;6.78;66.56;95519.06;1754188;80;21166;-55
2021/03/31 03:27:50;;;;;;;71.72;38.88;;;;;;;6.81;66.48;95512.00;1782554;80;21140;-55
2021/03/31 03:30:20;;;;;;;65.40;36.95;;;;;;;6.78;66.46;95516.33;1765304;80;21123;-56
2021/03/31 03:32:50;;;;;;;79.75;38.95;;;;;;;6.76;66.38;95516.54;1755098;80;21200;-55
2021/03/31 03:35:23;;;;;;;81.35;42.45;;;;;;;6.72;66.44;95514.43;1737183;81;21948;-56
2021/03/31 03:37:52;;;;;;;89.87;52.95;;;;;;;6.64;66.48;95514.28;1753775;80;21626;-56
2021/03/31 03:40:24;;;;;;;81.70;47.17;;;;;;;6.61;66.48;95511.00;1737923;81;21115;-56
2021/03/31 03:42:54;;;;;;;115.03;65.12;;;;;;;6.55;66.64;95522.19;1761075;80;21160;-56
2021/03/31 03:45:24;;;;;;;226.32;112.83;;;;;;;6.50;67.28;95517.16;1786045;80;21632;-56
2021/03/31 03:47:52;;;;;;;466.57;244.75;;;;;;;6.59;67.22;95518.83;1758388;80;21107;-57
2021/03/31 03:50:21;;;;;;;293.45;147.32;;;;;;;6.61;67.11;95523.30;1778904;80;21160;-56
2021/03/31 03:52:50;;;;;;;146.40;80.75;;;;;;;6.60;67.24;95523.91;1730598;81;21157;-56
2021/03/31 03:55:20;;;;;;;118.28;67.08;;;;;;;6.60;67.28;95517.64;1710917;81;21645;-56
2021/03/31 03:57:48;;;;;;;96.90;59.23;;;;;;;6.75;67.10;95519.87;1770429;80;21196;-55
2021/03/31 04:00:21;;;;;;;76.47;46.02;;;;;;;6.86;66.78;95519.79;1767883;80;21127;-56
2021/03/31 04:03:03;;;;;;;61.18;37.65;;;;;;;6.87;66.68;95511.16;1744945;80;21631;-62
2021/03/31 04:05:32;;;;;;;61.35;36.93;;;;;;;6.96;66.46;95517.53;1731599;82;21096;-55
2021/03/31 04:08:01;;;;;;;69.35;40.35;;;;;;;7.04;66.25;95520.41;1727704;82;21053;-57
2021/03/31 04:10:29;;;;;;;77.55;44.53;;;;;;;7.17;65.88;95519.48;1725698;82;21186;-56
2021/03/31 04:12:59;;;;;;;84.50;47.00;;;;;;;7.30;65.22;95522.66;1723506;82;21128;-56
2021/03/31 04:15:27;;;;;;;70.65;39.67;;;;;;;7.21;65.07;95521.00;1734378;82;21125;-55
2021/03/31 04:17:56;;;;;;;80.67;45.48;;;;;;;7.07;65.22;95522.32;1711665;82;21151;-56
2021/03/31 04:20:25;;;;;;;95.15;52.03;;;;;;;6.91;65.46;95524.81;1721796;82;21503;-58
2021/03/31 04:22:53;;;;;;;183.27;92.90;;;;;;;6.86;66.18;95523.89;1722681;82;22225;-57
2021/03/31 04:25:24;;;;;;;180.90;93.58;;;;;;;6.93;66.10;95527.91;1723061;82;21545;-55
2021/03/31 04:27:55;;;;;;;114.12;59.20;;;;;;;6.96;66.11;95518.32;1724558;82;21188;-56
2021/03/31 04:30:24;;;;;;;85.95;46.25;;;;;;;7.05;66.00;95521.95;1723439;82;21074;-56
2021/03/31 04:32:52;;;;;;;57.62;35.88;;;;;;;7.07;66.04;95529.92;1729800;82;21461;-56
2021/03/31 04:35:22;;;;;;;45.95;31.00;;;;;;;7.06;66.24;95528.98;1725885;82;21227;-57
2021/03/31 04:37:52;;;;;;;48.63;29.32;;;;;;;7.08;66.31;95525.24;1735717;81;21105;-57
2021/03/31 04:40:21;;;;;;;55.43;30.85;;;;;;;7.16;66.09;95529.63;1722982;82;21504;-56
2021/03/31 04:42:49;;;;;;;50.20;29.98;;;;;;;7.20;66.08;95533.14;1687161;83;21154;-56
2021/03/31 04:45:20;;;;;;;49.45;31.12;;;;;;;7.23;66.16;95528.22;1773699;80;21152;-56
2021/03/31 04:47:48;;;;;;;85.67;51.48;;;;;;;7.34;65.92;95534.34;1741748;82;21289;-57
2021/03/31 04:50:16;;;;;;;61.85;35.40;;;;;;;7.49;65.57;95522.66;1742334;82;21228;-57
2021/03/31 04:52:46;;;;;;;56.45;29.10;;;;;;;7.57;64.83;95530.97;1745482;82;21187;-57
2021/03/31 04:55:14;;;;;;;56.15;32.15;;;;;;;7.42;64.60;95531.73;1775119;80;21076;-56
2021/03/31 04:57:42;;;;;;;51.08;31.62;;;;;;;7.22;64.88;95538.97;1770666;80;21112;-57
2021/03/31 05:00:13;;;;;;;108.83;38.05;;;;;;;7.08;65.59;95536.95;1773383;80;21384;-56
2021/03/31 05:02:41;;;;;;;71.75;38.15;;;;;;;7.12;65.65;95535.73;1771685;79;21155;-57
2021/03/31 05:05:10;;;;;;;74.27;44.98;;;;;;;7.21;65.71;95540.16;1768728;80;21124;-56
2021/03/31 05:07:38;;;;;;;87.65;51.18;;;;;;;7.29;65.60;95540.84;1769758;79;21148;-57
2021/03/31 05:10:08;;;;;;;99.70;51.63;;;;;;;7.28;65.56;95545.55;1726637;80;21199;-58
2021/03/31 05:12:36;;;;;;;75.62;43.90;;;;;;;7.24;65.58;95549.50;1768095;80;21370;-57
2021/03/31 05:15:09;;;;;;;72.08;40.67;;;;;;;7.18;65.90;95548.39;1768540;80;21133;-57
2021/03/31 05:17:37;;;;;;;73.55;45.98;;;;;;;7.17;66.23;95549.58;1768550;80;21592;-56
2021/03/31 05:20:07;;;;;;;77.67;49.08;;;;;;;7.26;66.32;95545.76;1767231;80;21398;-58
2021/03/31 05:22:36;;;;;;;73.12;45.75;;;;;;;7.30;66.01;95547.89;1768324;80;21168;-57
2021/03/31 05:25:06;;;;;;;82.60;41.37;;;;;;;7.29;66.19;95544.36;1768331;80;21196;-58
2021/03/31 05:27:35;;;;;;;69.80;42.50;;;;;;;7.33;66.12;95549.20;1767082;80;21670;-56
2021/03/31 05:30:07;;;;;;;74.53;44.80;;;;;;;7.29;66.21;95541.63;1767142;79;21063;-60
2021/03/31 05:32:35;;;;;;;78.83;48.50;;;;;;;7.31;66.33;95550.20;1768775;80;21215;-57
2021/03/31 05:35:06;;;;;;;70.70;45.45;;;;;;;7.38;66.21;95546.02;1751209;80;21128;-62
2021/03/31 05:37:36;;;;;;;82.50;47.95;;;;;;;7.55;65.87;95545.05;1745535;81;21158;-60
2021/03/31 05:40:06;;;;;;;98.55;54.40;;;;;;;7.69;65.71;95549.01;1728569;80;21616;-61
2021/03/31 05:42:36;;;;;;;98.85;58.80;;;;;;;7.85;65.26;95551.19;1708505;82;21544;-57
2021/03/31 05:45:11;;;;;;;93.42;53.15;;;;;;;7.94;64.90;95546.77;1773996;79;21174;-57
2021/03/31 05:47:45;;;;;;;95.40;56.98;;;;;;;7.96;64.88;95545.76;1722199;82;21211;-62
2021/03/31 05:50:15;;;;;;;109.65;64.62;;;;;;;8.07;64.74;95546.38;1724768;82;22185;-60
2021/03/31 05:52:44;;;;;;;94.47;58.23;;;;;;;8.27;64.33;95545.19;1723811;82;21564;-66
2021/03/31 05:55:15;;;;;;;82.05;49.80;;;;;;;8.38;63.94;95542.47;1742011;80;21119;-63
2021/03/31 05:57:44;;;;;;;75.42;45.20;;;;;;;8.36;63.53;95547.59;1739487;80;21154;-62
2021/03/31 06:00:20;;;;;;;83.58;52.30;;;;;;;8.26;63.35;95547.74;1744702;80;21194;-58
2021/03/31 06:02:48;;;;;;;86.50;55.48;;;;;;;8.11;63.50;95545.73;1745541;80;22418;-63
2021/03/31 06:05:19;;;;;;;98.35;64.75;;;;;;;8.09;64.00;95552.22;1745764;80;21213;-62
2021/03/31 06:07:51;;;;;;;100.30;64.92;;;;;;;8.08;64.15;95546.56;1726890;80;21146;-66
2021/03/31 06:10:26;;;;;;;106.95;65.17;;;;;;;8.00;64.32;95544.33;1726937;80;21151;-62
2021/03/31 06:12:59;;;;;;;109.03;59.67;;;;;;;7.97;64.48;95545.94;1721342;80;22003;-63
2021/03/31 06:15:43;;;;;;;88.82;52.88;;;;;;;8.02;64.73;95544.11;1766083;79;21382;-64
2021/03/31 06:18:14;;;;;;;79.90;47.90;;;;;;;8.13;64.35;95540.64;1723305;80;21156;-58
2021/03/31 06:20:57;;;;;;;95.73;55.90;;;;;;;8.28;64.24;95535.77;1730225;81;21289;-67
2021/03/31 06:26:29;;;;;;;73.60;43.75;;;;;;;8.59;63.14;95527.07;1857544;75;24125;-66
2021/03/31 06:29:07;;;;;;;74.53;46.37;;;;;;;8.55;62.67;95524.98;1834988;76;21795;-70
2021/03/31 06:31:41;;;;;;;63.45;38.02;;;;;;;8.61;62.77;95521.94;1829650;76;21221;-62
2021/03/31 06:34:23;;;;;;;53.25;31.27;;;;;;;8.77;61.68;95526.81;1828540;76;21217;-60
2021/03/31 06:37:03;;;;;;;58.63;32.03;;;;;;;8.73;61.34;95535.09;1837294;76;21452;-61
2021/03/31 06:42:15;;;;;;;42.53;25.57;;;;;;;8.67;61.38;95525.78;1864428;75;23338;-62
2021/03/31 06:48:08;;;;;;;49.23;27.15;;;;;;;8.64;61.16;95528.58;1824133;76;21329;-60
2021/03/31 06:49:54;;;;;;;44.08;28.62;;;;;;;8.59;61.28;95523.57;1785221;77;21260;-61
2021/03/31 06:52:22;;;;;;;48.95;27.13;;;;;;;8.48;61.55;95531.95;1824105;77;21130;-60
2021/03/31 06:55:03;;;;;;;50.43;32.30;;;;;;;8.51;61.53;95526.22;1817699;77;21472;-62
2021/03/31 06:57:36;;;;;;;50.88;30.55;;;;;;;8.44;61.60;95524.97;1819962;77;21123;-61
2021/03/31 07:00:11;;;;;;;52.33;32.20;;;;;;;8.29;61.92;95523.00;1816286;77;21126;-60
2021/03/31 07:02:40;;;;;;;54.75;32.73;;;;;;;8.22;62.30;95527.84;1822269;77;21501;-62
2021/03/31 07:05:09;;;;;;;40.33;25.65;;;;;;;8.18;62.66;95518.28;1827217;77;22113;-62
2021/03/31 07:07:43;;;;;;;42.27;27.40;;;;;;;8.21;63.07;95517.45;1816275;77;21132;-60
2021/03/31 07:10:18;;;;;;;54.63;32.58;;;;;;;8.30;63.53;95521.05;1820043;77;21112;-63
2021/03/31 07:12:52;;;;;;;59.20;36.95;;;;;;;8.45;63.72;95521.03;1823683;77;22655;-65
2021/03/31 07:15:24;;;;;;;54.93;34.10;;;;;;;8.62;63.69;95518.01;1819559;77;21209;-62
2021/03/31 07:17:55;;;;;;;61.33;35.85;;;;;;;8.74;63.14;95514.69;1821935;77;21157;-66
2021/03/31 07:20:25;;;;;;;51.55;32.73;;;;;;;8.77;63.00;95517.97;1817217;77;21119;-65
2021/03/31 07:22:54;;;;;;;58.13;34.80;;;;;;;8.75;63.11;95510.75;1820046;77;21102;-63
2021/03/31 07:25:23;;;;;;;53.25;35.03;;;;;;;8.69;63.41;95507.52;1831715;77;22157;-66
2021/03/31 07:27:53;;;;;;;48.90;31.80;;;;;;;8.77;63.58;95511.11;1826220;76;21918;-67
2021/03/31 07:30:22;;;;;;;52.10;33.20;;;;;;;8.89;63.62;95514.03;1777305;78;21151;-64
2021/03/31 07:32:57;;;;;;;52.70;34.40;;;;;;;8.95;63.87;95516.50;1747282;80;21203;-67
2021/03/31 07:35:29;;;;;;;57.62;36.20;;;;;;;9.05;63.72;95518.27;1739937;81;21796;-60
2021/03/31 07:38:00;;;;;;;64.17;35.95;;;;;;;9.13;63.34;95516.18;1757333;79;22077;-62
2021/03/31 07:40:32;;;;;;;53.80;33.92;;;;;;;9.16;63.65;95516.71;1783222;78;21203;-64
2021/03/31 07:43:14;;;;;;;59.40;36.28;;;;;;;9.16;63.74;95512.59;1785894;78;21427;-61
2021/03/31 07:45:49;;;;;;;59.00;34.85;;;;;;;9.25;63.60;95510.86;1786465;78;21175;-62
2021/03/31 07:48:19;;;;;;;48.38;31.60;;;;;;;9.36;63.58;95514.78;1789111;79;21147;-65
2021/03/31 07:50:48;;;;;;;49.15;29.30;;;;;;;9.47;63.34;95511.25;1792378;78;21192;-64
2021/03/31 07:53:20;;;;;;;57.38;32.95;;;;;;;9.58;63.33;95504.97;1791714;79;21699;-64
2021/03/31 07:55:53;;;;;;;56.13;32.55;;;;;;;9.63;63.06;95507.21;1768516;79;21718;-67
2021/03/31 07:58:31;;;;;;;51.85;32.80;;;;;;;9.60;63.34;95512.18;1789897;79;21559;-66
2021/03/31 08:01:07;;;;;;;49.15;31.17;;;;;;;9.62;63.21;95511.16;1741006;81;21513;-66
2021/03/31 08:03:38;;;;;;;65.35;36.50;;;;;;;9.66;63.62;95500.87;1784734;79;21370;-62
2021/03/31 08:06:22;;;;;;;51.60;33.13;;;;;;;9.71;63.93;95502.53;1791021;78;21144;-69
2021/03/31 08:08:55;;;;;;;49.42;30.85;;;;;;;9.86;63.93;95502.42;1790017;79;21215;-67
2021/03/31 08:11:47;;;;;;;53.83;33.40;;;;;;;9.97;63.87;95500.83;1782469;79;21709;-65
2021/03/31 08:14:31;;;;;;;52.03;31.45;;;;;;;9.94;63.93;95497.53;1790957;79;21230;-65
2021/03/31 08:17:01;;;;;;;53.90;31.70;;;;;;;9.89;63.92;95498.03;1785638;78;22666;-64
2021/03/31 08:19:37;;;;;;;52.62;33.83;;;;;;;9.93;64.42;95490.48;1790768;79;21514;-61
2021/03/31 08:22:34;;;;;;;55.65;35.25;;;;;;;9.98;64.21;95487.26;1735033;80;21189;-69
2021/03/31 08:25:18;;;;;;;47.40;29.18;;;;;;;10.10;64.33;95483.87;1795220;78;21134;-66
2021/03/31 08:27:57;;;;;;;60.65;34.03;;;;;;;10.26;63.90;95485.28;1785158;79;21116;-72
2021/03/31 08:30:26;;;;;;;58.85;35.88;;;;;;;10.22;63.86;95485.97;1764424;78;21206;-62
2021/03/31 08:32:54;;;;;;;54.18;32.30;;;;;;;10.23;63.70;95488.30;1762142;79;21895;-64
2021/03/31 08:35:27;;;;;;;51.95;33.73;;;;;;;10.28;63.89;95482.88;1786067;78;21309;-66
2021/03/31 08:37:56;;;;;;;49.50;30.97;;;;;;;10.29;63.89;95483.84;1786310;79;21168;-64
2021/03/31 08:40:29;;;;;;;50.12;32.93;;;;;;;10.28;63.90;95481.50;1786230;79;21198;-65
2021/03/31 08:43:01;;;;;;;50.52;32.70;;;;;;;10.28;64.10;95481.50;1789844;78;21354;-65
2021/03/31 08:45:41;;;;;;;49.48;31.45;;;;;;;10.41;64.30;95482.39;1791440;78;21623;-67
2021/03/31 08:48:13;;;;;;;47.48;31.93;;;;;;;10.53;64.11;95474.84;1793707;79;21166;-67
2021/03/31 08:50:44;;;;;;;;;;;;;;;10.63;64.03;95470.47;1793434;79;21654;-64
2021/03/31 08:53:12;;;;;;;43.48;27.65;;;;;;;10.73;63.85;95471.41;1798283;78;21205;-67
2021/03/31 08:55:42;;;;;;;42.50;28.73;;;;;;;10.80;63.13;95464.52;1784031;78;21176;-62
2021/03/31 08:58:11;;;;;;;43.98;31.27;;;;;;;10.85;63.02;95466.77;1792971;79;22525;-63
2021/03/31 09:00:50;;;;;;;50.88;30.70;;;;;;;10.89;63.38;95464.70;1790650;79;21167;-66
2021/03/31 09:03:17;;;;;;;44.27;28.27;;;;;;;10.93;63.39;95465.37;1790493;79;21761;-64
2021/03/31 09:06:00;;;;;;;52.33;30.68;;;;;;;10.96;63.57;95452.13;1784152;79;21198;-69
2021/03/31 09:08:30;;;;;;;52.75;30.08;;;;;;;10.94;63.91;95461.42;1802078;79;21201;-64
2021/03/31 09:11:03;;;;;;;49.63;30.50;;;;;;;11.05;63.79;95454.27;1796692;78;21166;-67
2021/03/31 09:13:34;;;;;;;44.15;28.15;;;;;;;11.13;63.50;95446.76;1785077;78;22051;-58
2021/03/31 09:16:09;;;;;;;40.17;27.27;;;;;;;11.19;63.47;95450.52;1787750;79;21219;-61
2021/03/31 09:18:42;;;;;;;47.93;27.80;;;;;;;11.21;63.35;95446.73;1749311;81;21135;-62
2021/03/31 09:21:12;;;;;;;47.15;31.30;;;;;;;11.18;63.15;95443.47;1781999;78;22164;-60
2021/03/31 09:23:46;;;;;;;50.35;31.87;;;;;;;11.19;63.48;95439.52;1792518;78;21264;-66
2021/03/31 09:26:15;;;;;;;42.15;30.12;;;;;;;11.27;63.46;95449.14;1781932;78;21121;-66
2021/03/31 09:28:47;;;;;;;47.58;29.82;;;;;;;11.29;63.49;95438.47;1797890;78;21118;-65
2021/03/31 09:31:22;;;;;;;48.02;29.92;;;;;;;11.26;63.53;95444.84;1787746;78;21173;-60
2021/03/31 09:33:56;;;;;;;52.38;30.85;;;;;;;11.31;63.50;95442.17;1781416;78;21422;-62
2021/03/31 09:36:31;;;;;;;52.38;33.73;;;;;;;11.36;63.71;95445.77;1768668;79;21629;-61
2021/03/31 09:39:03;;;;;;;49.90;31.02;;;;;;;11.39;63.80;95437.39;1799530;78;22308;-64
2021/03/31 09:41:34;;;;;;;52.93;34.08;;;;;;;11.45;63.81;95434.28;1799922;78;21135;-62
2021/03/31 09:44:03;;;;;;;58.45;33.70;;;;;;;11.46;63.75;95433.08;1780049;78;21559;-63
2021/03/31 09:46:35;;;;;;;52.50;33.08;;;;;;;11.53;63.94;95435.63;1784556;78;22091;-64
2021/03/31 09:49:10;;;;;;;47.48;33.05;;;;;;;11.66;63.81;95433.72;1785665;78;21198;-59
2021/03/31 09:51:38;;;;;;;48.87;32.70;;;;;;;11.72;63.82;95428.45;1785809;79;21143;-64
2021/03/31 09:54:07;;;;;;;49.95;32.30;;;;;;;11.75;63.61;95430.33;1773589;78;21713;-65
2021/03/31 09:56:36;;;;;;;45.48;29.27;;;;;;;11.79;63.55;95426.85;1766896;79;21757;-59
2021/03/31 09:59:04;;;;;;;41.48;27.55;;;;;;;11.82;63.45;95424.00;1736353;79;22386;-65
2021/03/31 10:01:33;;;;;;;41.53;25.97;;;;;;;11.76;63.47;95420.25;1796712;78;21231;-62
2021/03/31 10:04:03;;;;;;;43.30;25.30;;;;;;;11.70;63.64;95423.98;1788935;78;21691;-63
2021/03/31 10:06:34;;;;;;;36.80;24.15;;;;;;;11.70;63.88;95416.47;1705292;81;21164;-60
2021/03/31 10:09:03;;;;;;;48.00;25.90;;;;;;;11.82;63.71;95415.73;1790229;79;21178;-63
2021/03/31 10:11:37;;;;;;;44.88;28.62;;;;;;;11.88;63.52;95414.59;1774764;79;21352;-59
2021/03/31 10:14:09;;;;;;;37.85;22.77;;;;;;;11.88;63.66;95409.83;1789987;78;21658;-60
2021/03/31 10:16:39;;;;;;;40.52;24.85;;;;;;;11.90;63.52;95404.64;1768323;79;21201;-64
2021/03/31 10:19:10;;;;;;;37.95;24.35;;;;;;;11.83;63.38;95409.00;1761171;79;22300;-62
2021/03/31 10:21:38;;;;;;;39.70;23.83;;;;;;;11.78;63.73;95405.42;1802978;79;21124;-67
2021/03/31 10:24:13;;;;;;;46.00;27.90;;;;;;;11.76;64.03;95399.58;1812841;77;22545;-57
2021/03/31 10:26:49;;;;;;;37.30;23.22;;;;;;;11.78;64.03;95394.98;1750754;80;21642;-64
2021/03/31 10:29:22;;;;;;;41.23;23.83;;;;;;;11.92;63.98;95393.95;1736029;80;22081;-65
2021/03/31 10:31:52;;;;;;;34.05;20.05;;;;;;;12.14;63.61;95400.97;1748727;80;21190;-61
2021/03/31 10:34:21;;;;;;;32.90;20.10;;;;;;;12.35;63.26;95392.81;1800239;78;21242;-62
2021/03/31 10:37:09;;;;;;;32.88;17.05;;;;;;;12.52;63.04;95391.48;1798631;78;21356;-65
2021/03/31 10:50:16;;;;;;;26.52;16.23;;;;;;;12.57;62.10;95375.11;1781627;79;21159;-66
2021/03/31 10:52:50;;;;;;;22.82;14.93;;;;;;;12.59;62.31;95367.77;1822364;77;21355;-60
2021/03/31 10:55:17;;;;;;;22.45;13.15;;;;;;;12.71;62.37;95358.70;1817789;76;21216;-66
2021/03/31 10:57:45;;;;;;;23.47;14.68;;;;;;;12.95;62.26;95363.41;1811839;77;21171;-60
2021/03/31 11:00:17;;;;;;;17.32;11.53;;;;;;;13.17;62.12;95351.77;1830455;77;21430;-63
2021/03/31 11:02:45;;;;;;;22.30;13.48;;;;;;;13.52;61.17;95349.70;1829167;76;21154;-62
2021/03/31 11:05:13;;;;;;;25.90;14.53;;;;;;;13.80;61.08;95354.19;1834211;77;21356;-59
2021/03/31 11:07:42;;;;;;;23.05;14.13;;;;;;;13.95;59.93;95347.65;1839686;77;21690;-62
2021/03/31 11:10:12;;;;;;;22.05;14.33;;;;;;;14.11;58.82;95348.80;1839612;76;21109;-65
2021/03/31 11:12:43;;;;;;;25.72;15.90;;;;;;;14.20;58.50;95345.33;1787523;79;21091;-65
2021/03/31 11:15:14;;;;;;;33.75;17.07;;;;;;;14.30;58.56;95342.73;1806423;77;21540;-63
2021/03/31 11:28:14;;;;;;;23.47;13.98;;;;;;;14.69;57.18;95325.48;1824921;76;21440;-72
2021/03/31 11:30:43;;;;;;;23.18;14.07;;;;;;;14.80;56.71;95326.41;1822923;76;22153;-68
2021/03/31 11:33:12;;;;;;;22.60;14.68;;;;;;;14.85;56.62;95319.63;1825586;76;21055;-65
2021/03/31 11:35:42;;;;;;;22.27;13.90;;;;;;;14.82;56.75;95317.78;1830035;76;21158;-65
2021/03/31 11:38:10;;;;;;;25.20;14.23;;;;;;;14.77;57.03;95319.00;1820892;76;21157;-70
2021/03/31 11:40:38;;;;;;;21.27;14.23;;;;;;;14.73;56.78;95319.17;1818457;76;21226;-70
2021/03/31 11:43:07;;;;;;;20.52;14.43;;;;;;;14.71;56.85;95317.48;1821315;76;22008;-64
2021/03/31 11:45:36;;;;;;;22.52;14.13;;;;;;;14.69;57.37;95313.02;1836808;76;21220;-59
2021/03/31 11:48:07;;;;;;;23.62;13.68;;;;;;;14.64;57.60;95310.08;1790510;78;21194;-67
2021/03/31 11:50:35;;;;;;;29.10;13.62;;;;;;;14.57;58.01;95304.81;1780176;78;21198;-74
2021/03/31 11:53:03;;;;;;;28.00;14.83;;;;;;;14.56;58.39;95303.28;1776738;78;21102;-65
2021/03/31 11:55:31;;;;;;;24.70;16.02;;;;;;;14.61;58.57;95296.52;1788381;78;21375;-65
2021/03/31 11:58:00;;;;;;;24.23;14.60;;;;;;;14.72;58.56;95296.08;1779588;78;21234;-67
2021/03/31 12:00:28;;;;;;;25.55;15.38;;;;;;;14.79;58.19;95297.17;1768503;78;21717;-64
2021/03/31 12:02:56;;;;;;;27.02;16.35;;;;;;;14.82;58.05;95292.84;1780868;78;21205;-67
2021/03/31 12:05:25;;;;;;;21.57;13.80;;;;;;;14.82;58.08;95290.08;1766669;80;21166;-65
2021/03/31 12:07:58;;;;;;;21.70;13.70;;;;;;;14.83;58.27;95286.08;1777906;80;21367;-72
2021/03/31 12:10:29;;;;;;;22.50;13.98;;;;;;;14.83;58.50;95287.46;1769586;78;21202;-59
2021/03/31 12:12:58;;;;;;;29.37;18.27;;;;;;;14.81;58.56;95283.00;1803441;78;21118;-65
2021/03/31 12:15:27;;;;;;;33.60;17.77;;;;;;;14.82;58.45;95283.78;1782640;80;21174;-63
2021/03/31 12:17:55;;;;;;;32.50;17.23;;;;;;;14.83;58.21;95280.53;1781163;80;21175;-64
2021/03/31 12:20:24;;;;;;;30.40;16.90;;;;;;;14.81;58.45;95277.46;1775861;78;22124;-64
2021/03/31 12:22:53;;;;;;;27.95;17.20;;;;;;;14.82;58.67;95277.61;1774121;78;21195;-61
2021/03/31 12:25:22;;;;;;;35.73;19.02;;;;;;;14.82;58.60;95277.61;1782543;78;21112;-65
2021/03/31 12:27:55;;;;;;;32.03;18.20;;;;;;;14.80;58.27;95273.78;1764785;80;21162;-64
2021/03/31 12:30:23;;;;;;;27.50;17.42;;;;;;;14.70;58.20;95270.23;1773511;78;21158;-62
2021/03/31 12:32:51;;;;;;;41.33;21.20;;;;;;;14.59;58.30;95267.14;1723851;82;21376;-66
2021/03/31 12:35:19;;;;;;;25.97;15.30;;;;;;;14.48;58.71;95268.19;1713785;80;21185;-64
2021/03/31 12:37:47;;;;;;;28.20;14.45;;;;;;;14.41;59.29;95256.67;1772331;80;21166;-65
2021/03/31 12:40:16;;;;;;;34.27;19.57;;;;;;;14.37;59.44;95255.27;1766814;78;21141;-64
2021/03/31 12:42:43;;;;;;;29.48;16.73;;;;;;;14.35;59.63;95244.64;1775459;78;21115;-64
2021/03/31 12:45:13;;;;;;;28.45;15.70;;;;;;;14.35;59.62;95245.27;1736126;81;21210;-61
2021/03/31 12:47:42;;;;;;;23.18;16.17;;;;;;;14.34;59.81;95238.95;1724867;80;21181;-59
2021/03/31 12:50:15;;;;;;;24.57;15.30;;;;;;;14.32;59.67;95239.28;1750060;80;21185;-66
2021/03/31 12:57:58;;;;;;;30.52;19.55;;;;;;;14.41;60.01;95226.82;1848263;76;22815;-66
2021/03/31 13:00:25;;;;;;;32.93;18.17;;;;;;;14.40;60.07;95221.13;1749831;80;21155;-68
2021/03/31 13:02:54;;;;;;;28.27;18.07;;;;;;;14.39;60.07;95219.59;1748895;80;21370;-63
2021/03/31 13:05:22;;;;;;;31.20;18.62;;;;;;;14.40;60.29;95212.83;1770370;79;22319;-64
2021/03/31 13:07:53;;;;;;;32.00;19.30;;;;;;;14.42;60.14;95211.75;1762626;80;21134;-60
2021/03/31 13:10:24;;;;;;;29.57;16.85;;;;;;;14.48;60.17;95207.28;1758820;79;21213;-64
2021/03/31 13:13:02;;;;;;;33.08;16.73;;;;;;;14.59;59.97;95212.39;1756337;80;21193;-64
2021/03/31 13:15:41;;;;;;;36.45;20.80;;;;;;;14.63;60.01;95206.08;1741547;81;21222;-63
2021/03/31 13:23:51;;;;;;;36.30;19.80;;;;;;;14.45;60.16;95208.20;1741084;79;21130;-64
2021/03/31 13:28:40;;;;;;;32.20;17.62;;;;;;;14.37;60.48;95201.30;1718717;82;21221;-62